createdAt,value
2019-05-26T00:00:31.030Z,12.90
2019-05-26T00:03:00.528Z,12.80
2019-05-26T00:05:30.091Z,12.90
2019-05-26T00:07:59.697Z,12.90
2019-05-26T00:10:29.263Z,12.70
2019-05-26T00:12:58.922Z,12.50
2019-05-26T00:15:28.375Z,12.50
2019-05-26T00:17:57.834Z,12.70
2019-05-26T00:20:27.339Z,12.40
2019-05-26T00:22:56.897Z,12.30
2019-05-26T00:25:26.573Z,12.40
2019-05-26T00:27:56.121Z,12.50
2019-05-26T00:30:25.664Z,12.50
2019-05-26T00:32:55.244Z,12.40
2019-05-26T00:35:24.870Z,12.30
2019-05-26T00:37:54.321Z,12.40
2019-05-26T00:40:23.772Z,12.20
2019-05-26T00:42:53.365Z,12.10
2019-05-26T00:45:23.107Z,12.20
2019-05-26T00:47:52.571Z,12.20
2019-05-26T00:50:22.421Z,12.20
2019-05-26T00:52:52.001Z,12.30
2019-05-26T00:55:21.734Z,12.10
2019-05-26T00:57:51.357Z,12.00
2019-05-26T01:00:23.983Z,12.10
2019-05-26T01:02:53.572Z,12.00
2019-05-26T01:05:23.127Z,12.00
2019-05-26T01:08:05.304Z,12.00
2019-05-26T01:10:23.718Z,12.00
2019-05-26T01:12:53.178Z,12.00
2019-05-26T01:15:22.730Z,12.00
2019-05-26T01:17:52.184Z,11.90
2019-05-26T01:20:21.809Z,11.90
2019-05-26T01:22:53.828Z,11.90
2019-05-26T01:25:22.663Z,11.80
2019-05-26T01:27:52.061Z,11.80
2019-05-26T01:30:24.628Z,11.80
2019-05-26T01:32:54.055Z,11.70
2019-05-26T01:35:23.668Z,11.70
2019-05-26T01:37:53.217Z,11.70
2019-05-26T01:40:25.734Z,11.70
2019-05-26T01:42:55.132Z,11.70
2019-05-26T01:45:24.614Z,11.70
2019-05-26T01:47:54.085Z,11.80
2019-05-26T01:50:23.569Z,11.70
2019-05-26T01:52:53.005Z,11.70
2019-05-26T01:55:22.506Z,11.70
2019-05-26T01:57:51.959Z,11.70
2019-05-26T02:00:22.858Z,11.70
2019-05-26T02:02:52.411Z,11.60
2019-05-26T02:05:21.879Z,11.60
2019-05-26T02:07:51.449Z,11.50
2019-05-26T02:10:21.358Z,11.50
2019-05-26T02:12:50.909Z,11.50
2019-05-26T02:15:21.641Z,11.50
2019-05-26T02:17:51.198Z,11.50
2019-05-26T02:20:22.380Z,11.50
2019-05-26T02:22:51.977Z,11.60
2019-05-26T02:25:21.841Z,11.60
2019-05-26T02:27:51.378Z,11.50
2019-05-26T02:30:21.200Z,11.60
2019-05-26T02:32:50.779Z,11.50
2019-05-26T02:35:20.698Z,11.50
2019-05-26T02:37:50.218Z,11.50
2019-05-26T02:40:22.090Z,11.50
2019-05-26T02:42:51.700Z,11.30
2019-05-26T02:45:22.340Z,11.20
2019-05-26T02:47:51.821Z,11.20
2019-05-26T02:50:23.136Z,11.20
2019-05-26T02:52:52.629Z,11.20
2019-05-26T02:55:22.405Z,11.30
2019-05-26T02:57:51.806Z,11.40
2019-05-26T03:00:24.424Z,11.40
2019-05-26T03:02:54.073Z,11.40
2019-05-26T03:05:23.637Z,11.40
2019-05-26T03:07:55.353Z,11.40
2019-05-26T03:10:24.827Z,11.50
2019-05-26T03:12:55.856Z,11.50
2019-05-26T03:15:25.477Z,11.60
2019-05-26T03:17:56.735Z,11.50
2019-05-26T03:20:26.278Z,11.50
2019-05-26T03:22:57.651Z,11.50
2019-05-26T03:25:27.256Z,11.50
2019-05-26T03:27:56.688Z,11.60
2019-05-26T03:30:26.144Z,11.50
2019-05-26T03:32:55.684Z,11.60
2019-05-26T03:35:25.142Z,11.60
2019-05-26T03:37:54.599Z,11.60
2019-05-26T03:40:24.100Z,11.60
2019-05-26T03:42:53.681Z,11.60
2019-05-26T03:45:25.238Z,11.70
2019-05-26T03:47:54.628Z,11.70
2019-05-26T03:50:24.032Z,11.70
2019-05-26T03:52:53.523Z,11.70
2019-05-26T03:55:22.973Z,11.80
2019-05-26T03:57:52.410Z,11.80
2019-05-26T04:00:22.439Z,11.90
2019-05-26T04:02:51.990Z,11.90
2019-05-26T04:05:21.399Z,11.90
2019-05-26T04:07:50.810Z,12.00
2019-05-26T04:10:20.321Z,12.10
2019-05-26T04:12:49.833Z,12.00
2019-05-26T04:15:19.572Z,12.10
2019-05-26T04:17:49.106Z,12.10
2019-05-26T04:20:18.765Z,12.10
2019-05-26T04:22:48.223Z,12.20
2019-05-26T04:25:17.656Z,12.20
2019-05-26T04:27:47.147Z,12.30
2019-05-26T04:30:16.698Z,12.30
2019-05-26T04:32:46.102Z,12.40
2019-05-26T04:35:19.523Z,12.50
2019-05-26T04:38:11.169Z,12.60
2019-05-26T04:40:40.788Z,12.60
2019-05-26T04:43:14.466Z,12.60
2019-05-26T04:45:41.475Z,12.60
2019-05-26T04:48:11.062Z,12.60
2019-05-26T04:50:40.608Z,12.80
2019-05-26T04:53:10.348Z,12.80
2019-05-26T04:55:39.936Z,12.90
2019-05-26T04:58:09.460Z,13.00
2019-05-26T05:00:38.976Z,13.00
2019-05-26T05:03:08.515Z,12.90
2019-05-26T05:05:38.055Z,12.90
2019-05-26T05:08:07.699Z,13.20
2019-05-26T05:10:42.364Z,13.20
2019-05-26T05:13:08.365Z,13.20
2019-05-26T05:15:37.861Z,13.40
2019-05-26T05:18:07.401Z,13.60
2019-05-26T05:20:36.993Z,13.70
2019-05-26T05:23:08.453Z,13.90
2019-05-26T05:25:37.902Z,14.20
2019-05-26T05:28:07.384Z,14.20
2019-05-26T05:30:38.604Z,14.40
2019-05-26T05:33:08.158Z,14.50
2019-05-26T05:35:37.864Z,14.80
2019-05-26T05:38:07.526Z,15.00
2019-05-26T05:40:37.059Z,15.30
2019-05-26T05:43:06.548Z,15.30
2019-05-26T05:45:37.171Z,15.30
2019-05-26T05:48:06.828Z,15.60
2019-05-26T05:50:39.153Z,15.80
2019-05-26T05:53:07.651Z,16.00
2019-05-26T05:55:38.315Z,16.10
2019-05-26T05:58:07.900Z,16.10
2019-05-26T06:00:37.597Z,16.10
2019-05-26T06:03:07.192Z,16.00
2019-05-26T06:05:36.665Z,16.20
2019-05-26T06:08:07.291Z,16.30
2019-05-26T06:10:37.895Z,16.50
2019-05-26T06:13:07.583Z,16.50
2019-05-26T06:15:38.388Z,16.40
2019-05-26T06:18:08.040Z,16.50
2019-05-26T06:20:37.659Z,16.60
2019-05-26T06:23:07.228Z,16.50
2019-05-26T06:25:37.218Z,16.40
2019-05-26T06:28:06.702Z,16.50
2019-05-26T06:30:36.177Z,16.50
2019-05-26T06:33:05.827Z,16.30
2019-05-26T06:35:35.345Z,16.10
2019-05-26T06:38:05.067Z,16.50
2019-05-26T06:40:34.675Z,16.40
2019-05-26T06:43:04.209Z,16.40
2019-05-26T06:45:33.815Z,16.50
2019-05-26T06:48:03.432Z,16.60
2019-05-26T06:50:32.976Z,16.50
2019-05-26T06:53:02.436Z,16.50
2019-05-26T06:55:32.051Z,16.50
2019-05-26T06:58:01.571Z,16.10
2019-05-26T07:00:31.075Z,16.00
2019-05-26T07:03:00.504Z,15.90
2019-05-26T07:05:29.921Z,16.10
2019-05-26T07:07:59.383Z,16.40
2019-05-26T07:10:28.812Z,16.60
2019-05-26T07:13:02.090Z,16.70
2019-05-26T07:15:31.820Z,16.30
2019-05-26T07:18:01.221Z,16.40
2019-05-26T07:20:31.698Z,16.70
2019-05-26T07:23:01.246Z,16.70
2019-05-26T07:25:30.822Z,16.90
2019-05-26T07:28:00.184Z,16.80
2019-05-26T07:30:29.546Z,16.80
2019-05-26T07:32:59.005Z,16.60
2019-05-26T07:35:28.473Z,16.60
2019-05-26T07:37:57.850Z,16.70
2019-05-26T07:40:27.291Z,16.70
2019-05-26T07:42:56.940Z,16.70
2019-05-26T07:45:26.412Z,17.00
2019-05-26T07:47:55.765Z,16.80
2019-05-26T07:50:25.211Z,16.80
2019-05-26T07:52:54.707Z,16.60
2019-05-26T07:55:24.105Z,16.60
2019-05-26T07:57:53.633Z,16.70
2019-05-26T08:00:23.459Z,16.70
2019-05-26T08:02:52.831Z,17.00
2019-05-26T08:05:22.258Z,17.00
2019-05-26T08:07:51.671Z,17.10
2019-05-26T08:10:21.191Z,17.10
2019-05-26T08:12:52.454Z,17.30
2019-05-26T08:15:21.955Z,17.20
2019-05-26T08:17:51.376Z,17.20
2019-05-26T08:20:21.106Z,17.20
2019-05-26T08:22:50.509Z,17.40
2019-05-26T08:25:20.046Z,17.10
2019-05-26T08:27:50.345Z,17.20
2019-05-26T08:30:21.003Z,17.20
2019-05-26T08:32:50.462Z,17.30
2019-05-26T08:35:19.903Z,17.30
2019-05-26T08:37:49.255Z,17.60
2019-05-26T08:40:18.788Z,17.90
2019-05-26T08:42:51.373Z,18.10
2019-05-26T08:45:23.908Z,18.20
2019-05-26T08:47:53.260Z,18.10
2019-05-26T08:50:23.827Z,17.70
2019-05-26T08:52:53.327Z,17.80
2019-05-26T08:55:23.269Z,18.00
2019-05-26T08:57:52.698Z,18.20
2019-05-26T09:00:22.710Z,18.30
2019-05-26T09:02:52.152Z,18.20
2019-05-26T09:05:21.752Z,18.00
2019-05-26T09:08:07.798Z,18.00
2019-05-26T09:10:35.579Z,18.10
2019-05-26T09:13:05.183Z,18.30
2019-05-26T09:15:34.696Z,18.40
2019-05-26T09:18:04.347Z,18.40
2019-05-26T09:20:33.904Z,18.60
2019-05-26T09:23:03.460Z,18.80
2019-05-26T09:25:32.976Z,18.40
2019-05-26T09:28:02.610Z,18.60
2019-05-26T09:30:32.136Z,18.80
2019-05-26T09:33:01.566Z,19.00
2019-05-26T09:35:31.121Z,19.00
2019-05-26T09:38:00.589Z,19.00
2019-05-26T09:40:30.206Z,18.90
2019-05-26T09:43:14.787Z,19.00
2019-05-26T09:45:31.210Z,19.10
2019-05-26T09:48:02.260Z,19.20
2019-05-26T09:50:31.819Z,19.20
2019-05-26T09:53:01.427Z,19.20
2019-05-26T09:55:32.041Z,19.30
2019-05-26T09:58:02.050Z,19.30
2019-05-26T10:00:31.625Z,19.30
2019-05-26T10:03:01.077Z,19.30
2019-05-26T10:05:30.537Z,19.50
2019-05-26T10:08:00.145Z,19.50
2019-05-26T10:10:29.564Z,19.40
2019-05-26T10:12:59.044Z,19.60
2019-05-26T10:15:28.527Z,19.70
2019-05-26T10:17:58.009Z,19.60
2019-05-26T10:20:27.572Z,19.60
2019-05-26T10:22:58.846Z,19.70
2019-05-26T10:25:28.236Z,19.80
2019-05-26T10:27:57.808Z,19.90
2019-05-26T10:30:28.416Z,19.60
2019-05-26T10:32:58.072Z,19.40
2019-05-26T10:35:27.544Z,19.60
2019-05-26T10:37:56.975Z,19.40
2019-05-26T10:40:26.450Z,19.60
2019-05-26T10:42:55.984Z,19.70
2019-05-26T10:45:25.346Z,19.80
2019-05-26T10:47:55.807Z,19.90
2019-05-26T10:50:25.423Z,19.80
2019-05-26T10:52:54.917Z,19.70
2019-05-26T10:55:24.591Z,19.80
2019-05-26T10:57:54.125Z,19.80
2019-05-26T11:00:24.033Z,19.70
2019-05-26T11:02:53.557Z,19.80
2019-05-26T11:05:23.048Z,19.90
2019-05-26T11:07:52.592Z,19.80
2019-05-26T11:10:22.265Z,19.90
2019-05-26T11:12:51.744Z,19.70
2019-05-26T11:15:21.397Z,19.90
2019-05-26T11:17:50.781Z,19.90
2019-05-26T11:20:20.479Z,19.90
2019-05-26T11:22:49.876Z,19.90
2019-05-26T11:25:19.364Z,20.00
2019-05-26T11:27:48.839Z,20.10
2019-05-26T11:30:19.409Z,20.00
2019-05-26T11:32:48.930Z,20.10
2019-05-26T11:35:18.287Z,19.90
2019-05-26T11:37:47.706Z,20.00
2019-05-26T11:40:17.675Z,20.00
2019-05-26T11:42:47.029Z,20.10
2019-05-26T11:45:18.493Z,20.20
2019-05-26T11:47:49.275Z,20.10
2019-05-26T11:50:19.197Z,19.90
2019-05-26T11:52:48.535Z,19.90
2019-05-26T11:55:18.091Z,19.90
2019-05-26T11:57:47.528Z,20.10
2019-05-26T12:00:18.481Z,20.20
2019-05-26T12:02:47.926Z,20.20
2019-05-26T12:05:18.193Z,20.30
2019-05-26T12:07:48.675Z,20.20
2019-05-26T12:10:18.497Z,20.10
2019-05-26T12:12:47.845Z,20.00
2019-05-26T12:15:18.353Z,20.20
2019-05-26T12:17:47.797Z,20.10
2019-05-26T12:20:17.507Z,20.10
2019-05-26T12:22:46.930Z,20.10
2019-05-26T12:25:16.753Z,20.20
2019-05-26T12:27:46.203Z,20.30
2019-05-26T12:30:17.386Z,20.30
2019-05-26T12:32:47.063Z,20.30
2019-05-26T12:35:16.579Z,20.40
2019-05-26T12:37:48.278Z,20.40
2019-05-26T12:40:17.356Z,20.40
2019-05-26T12:42:46.955Z,20.30
2019-05-26T12:45:17.245Z,20.40
2019-05-26T12:47:46.636Z,20.40
2019-05-26T12:50:16.368Z,20.40
2019-05-26T12:52:45.846Z,20.40
2019-05-26T12:55:17.456Z,20.40
2019-05-26T12:57:47.018Z,20.30
2019-05-26T13:00:16.900Z,20.30
2019-05-26T13:02:46.307Z,20.40
2019-05-26T13:05:16.601Z,20.50
2019-05-26T13:07:46.136Z,20.50
2019-05-26T13:10:16.777Z,20.50
2019-05-26T13:12:46.327Z,20.50
2019-05-26T13:15:17.576Z,20.60
2019-05-26T13:17:47.054Z,20.60
2019-05-26T13:20:17.254Z,20.60
2019-05-26T13:22:46.795Z,20.60
2019-05-26T13:25:18.186Z,20.50
2019-05-26T13:27:47.702Z,20.60
2019-05-26T13:30:19.824Z,20.60
2019-05-26T13:32:49.323Z,20.50
2019-05-26T13:35:19.406Z,20.70
2019-05-26T13:37:48.972Z,20.80
2019-05-26T13:40:18.856Z,20.80
2019-05-26T13:42:48.379Z,20.90
2019-05-26T13:45:23.122Z,20.90
2019-05-26T13:47:49.482Z,20.90
2019-05-26T13:50:19.891Z,20.80
2019-05-26T13:52:49.388Z,20.80
2019-05-26T13:55:19.520Z,20.80
2019-05-26T13:57:49.842Z,20.90
2019-05-26T14:00:20.310Z,20.80
2019-05-26T14:02:50.067Z,20.80
2019-05-26T14:05:19.640Z,20.80
2019-05-26T14:07:49.097Z,20.70
2019-05-26T14:10:21.589Z,20.70
2019-05-26T14:12:51.055Z,20.80
2019-05-26T14:15:20.694Z,20.90
2019-05-26T14:17:50.410Z,20.90
2019-05-26T14:20:23.352Z,21.00
2019-05-26T14:22:52.804Z,21.00
2019-05-26T14:25:22.271Z,21.00
2019-05-26T14:27:52.662Z,21.10
2019-05-26T14:30:22.235Z,21.00
2019-05-26T14:32:54.335Z,21.10
2019-05-26T14:35:25.934Z,21.00
2019-05-26T14:37:55.379Z,20.90
2019-05-26T14:40:24.979Z,20.90
2019-05-26T14:42:54.408Z,20.90
2019-05-26T14:45:24.167Z,20.90
2019-05-26T14:47:53.604Z,21.00
2019-05-26T14:50:24.040Z,20.90
2019-05-26T14:52:53.529Z,20.90
2019-05-26T14:55:23.158Z,20.90
2019-05-26T14:57:52.643Z,21.00
2019-05-26T15:00:23.960Z,21.00
2019-05-26T15:02:54.962Z,21.00
2019-05-26T15:05:24.304Z,21.10
2019-05-26T15:07:53.697Z,21.00
2019-05-26T15:10:23.058Z,20.90
2019-05-26T15:12:52.428Z,20.90
2019-05-26T15:15:22.011Z,20.90
2019-05-26T15:17:51.378Z,21.00
2019-05-26T15:20:21.194Z,20.80
2019-05-26T15:22:50.597Z,20.70
2019-05-26T15:25:20.163Z,20.70
2019-05-26T15:27:49.606Z,20.80
2019-05-26T15:30:20.189Z,20.70
2019-05-26T15:32:49.656Z,20.70
2019-05-26T15:35:19.359Z,20.60
2019-05-26T15:37:48.821Z,20.70
2019-05-26T15:40:18.307Z,20.60
2019-05-26T15:42:47.790Z,20.60
2019-05-26T15:45:17.617Z,20.60
2019-05-26T15:47:47.033Z,20.60
2019-05-26T15:50:16.851Z,20.50
2019-05-26T15:52:46.589Z,20.30
2019-05-26T15:55:16.845Z,20.30
2019-05-26T15:57:46.347Z,20.10
2019-05-26T16:00:16.509Z,20.20
2019-05-26T16:02:46.113Z,20.10
2019-05-26T16:05:15.617Z,20.00
2019-05-26T16:08:04.482Z,20.10
2019-05-26T16:10:33.997Z,20.10
2019-05-26T16:13:03.408Z,20.20
2019-05-26T16:15:32.942Z,20.30
2019-05-26T16:18:03.977Z,20.30
2019-05-26T16:20:33.446Z,20.30
2019-05-26T16:23:02.987Z,20.30
2019-05-26T16:25:32.434Z,20.30
2019-05-26T16:28:03.290Z,20.30
2019-05-26T16:30:34.037Z,20.40
2019-05-26T16:33:03.506Z,20.50
2019-05-26T16:35:32.998Z,20.70
2019-05-26T16:38:02.518Z,21.00
2019-05-26T16:40:32.018Z,21.30
2019-05-26T16:43:01.497Z,21.50
2019-05-26T16:45:31.101Z,21.60
2019-05-26T16:48:00.607Z,21.50
2019-05-26T16:50:30.189Z,21.60
2019-05-26T16:52:59.738Z,21.60
2019-05-26T16:55:29.200Z,21.50
2019-05-26T16:58:13.416Z,21.40
2019-05-26T17:00:42.793Z,21.50
2019-05-26T17:03:12.224Z,21.50
2019-05-26T17:05:41.649Z,21.60
2019-05-26T17:08:11.248Z,21.70
2019-05-26T17:10:40.777Z,21.60
2019-05-26T17:13:10.249Z,21.60
2019-05-26T17:15:39.784Z,21.50
2019-05-26T17:18:09.201Z,21.40
2019-05-26T17:20:38.593Z,21.40
2019-05-26T17:23:08.064Z,21.20
2019-05-26T17:25:37.481Z,21.00
2019-05-26T17:28:07.083Z,20.90
2019-05-26T17:30:36.554Z,20.80
2019-05-26T17:33:06.210Z,20.60
2019-05-26T17:35:35.804Z,20.40
2019-05-26T17:38:05.409Z,20.30
2019-05-26T17:40:35.028Z,20.30
2019-05-26T17:43:04.610Z,20.30
2019-05-26T17:45:34.108Z,20.20
2019-05-26T17:48:03.632Z,20.00
2019-05-26T17:50:33.123Z,19.70
2019-05-26T17:53:11.166Z,19.70
2019-05-26T17:55:40.733Z,19.30
2019-05-26T17:58:10.413Z,19.00
2019-05-26T18:00:39.896Z,18.90
2019-05-26T18:03:09.453Z,18.80
2019-05-26T18:05:39.071Z,18.60
2019-05-26T18:08:08.563Z,18.60
2019-05-26T18:10:38.269Z,18.60
2019-05-26T18:13:07.796Z,18.70
2019-05-26T18:15:37.334Z,18.50
2019-05-26T18:18:06.902Z,18.50
2019-05-26T18:20:36.389Z,18.40
2019-05-26T18:23:05.925Z,18.30
2019-05-26T18:25:35.423Z,18.20
2019-05-26T18:28:04.951Z,17.90
2019-05-26T18:30:34.472Z,17.70
2019-05-26T18:33:04.034Z,17.70
2019-05-26T18:35:33.677Z,17.40
2019-05-26T18:38:03.308Z,17.30
2019-05-26T18:40:32.843Z,17.30
2019-05-26T18:43:02.715Z,17.20
2019-05-26T18:45:32.221Z,17.10
2019-05-26T18:48:03.484Z,17.10
2019-05-26T18:50:33.000Z,16.90
2019-05-26T18:53:02.490Z,17.00
2019-05-26T18:55:32.157Z,17.00
2019-05-26T18:58:01.678Z,16.90
2019-05-26T19:00:31.481Z,16.80
2019-05-26T19:03:02.079Z,16.70
2019-05-26T19:05:34.753Z,16.60
2019-05-26T19:08:02.913Z,16.60
2019-05-26T19:10:32.408Z,16.50
2019-05-26T19:13:01.898Z,16.50
2019-05-26T19:15:31.403Z,16.50
2019-05-26T19:18:00.901Z,16.50
2019-05-26T19:20:30.503Z,16.50
2019-05-26T19:23:00.114Z,16.50
2019-05-26T19:25:29.893Z,16.40
2019-05-26T19:27:59.457Z,16.20
2019-05-26T19:30:28.991Z,16.20
2019-05-26T19:32:58.459Z,16.20
2019-05-26T19:35:27.956Z,16.10
2019-05-26T19:37:57.539Z,16.20
2019-05-26T19:40:27.145Z,16.10
2019-05-26T19:42:56.620Z,16.00
2019-05-26T19:45:26.230Z,15.80
2019-05-26T19:47:55.754Z,15.60
2019-05-26T19:50:25.294Z,15.80
2019-05-26T19:52:54.886Z,15.80
2019-05-26T19:55:26.144Z,15.80
2019-05-26T19:57:55.542Z,15.80
2019-05-26T20:00:25.850Z,15.80
2019-05-26T20:02:55.364Z,15.90
2019-05-26T20:05:24.783Z,15.90
2019-05-26T20:07:54.304Z,16.00
2019-05-26T20:10:23.944Z,16.00
2019-05-26T20:12:53.458Z,16.10
2019-05-26T20:15:23.151Z,16.00
2019-05-26T20:17:52.636Z,16.00
2019-05-26T20:20:22.299Z,16.00
2019-05-26T20:22:51.755Z,16.00
2019-05-26T20:25:21.402Z,15.90
2019-05-26T20:27:50.980Z,15.80
2019-05-26T20:30:39.132Z,15.80
2019-05-26T20:33:08.657Z,15.80
2019-05-26T20:35:38.888Z,15.80
2019-05-26T20:38:10.827Z,15.80
2019-05-26T20:40:42.427Z,15.80
2019-05-26T20:43:13.368Z,15.80
2019-05-26T20:45:43.559Z,15.80
2019-05-26T20:48:13.184Z,15.70
2019-05-26T20:50:44.084Z,15.70
2019-05-26T20:53:14.867Z,15.70
2019-05-26T20:55:44.798Z,15.70
2019-05-26T20:58:15.690Z,15.70
2019-05-26T21:00:47.667Z,15.70
2019-05-26T21:03:18.976Z,15.70
2019-05-26T21:05:48.489Z,15.70
2019-05-26T21:08:19.286Z,15.70
2019-05-26T21:10:50.747Z,15.70
2019-05-26T21:13:21.276Z,15.70
2019-05-26T21:15:50.899Z,15.70
2019-05-26T21:18:20.368Z,15.70
2019-05-26T21:20:51.177Z,15.80
2019-05-26T21:23:22.765Z,15.70
2019-05-26T21:25:52.176Z,15.60
2019-05-26T21:28:22.723Z,15.70
2019-05-26T21:30:52.505Z,15.70
2019-05-26T21:33:22.093Z,15.70
2019-05-26T21:35:51.567Z,15.70
2019-05-26T21:38:22.058Z,15.70
2019-05-26T21:40:52.656Z,15.60
2019-05-26T21:43:22.170Z,15.60
2019-05-26T21:45:51.879Z,15.70
2019-05-26T21:48:21.276Z,15.60
2019-05-26T21:50:50.716Z,15.60
2019-05-26T21:53:20.255Z,15.60
2019-05-26T21:55:49.774Z,15.60
2019-05-26T21:58:19.242Z,15.50
2019-05-26T22:00:50.243Z,15.50
2019-05-26T22:03:20.094Z,15.50
2019-05-26T22:05:49.522Z,15.50
2019-05-26T22:08:19.158Z,15.40
2019-05-26T22:10:48.701Z,15.40
2019-05-26T22:13:18.201Z,15.40
2019-05-26T22:15:47.718Z,15.40
2019-05-26T22:18:17.201Z,15.30
2019-05-26T22:20:46.751Z,15.30
2019-05-26T22:23:16.230Z,15.30
2019-05-26T22:25:45.690Z,15.20
2019-05-26T22:28:15.156Z,15.20
2019-05-26T22:30:44.725Z,15.20
2019-05-26T22:33:14.507Z,15.20
2019-05-26T22:35:43.920Z,15.20
2019-05-26T22:38:13.406Z,15.20
2019-05-26T22:40:42.970Z,15.20
2019-05-26T22:43:12.504Z,15.20
2019-05-26T22:45:42.098Z,15.10
2019-05-26T22:48:11.586Z,15.10
2019-05-26T22:50:41.056Z,15.10
2019-05-26T22:53:10.513Z,15.00
2019-05-26T22:55:40.234Z,15.00
2019-05-26T22:58:09.777Z,15.00
2019-05-26T23:00:39.390Z,15.00
2019-05-26T23:03:08.922Z,15.00
2019-05-26T23:05:38.518Z,14.90
2019-05-26T23:08:08.151Z,15.00
2019-05-26T23:10:37.723Z,15.00
2019-05-26T23:13:07.257Z,15.00
2019-05-26T23:15:36.821Z,15.00
2019-05-26T23:18:06.430Z,14.90
2019-05-26T23:20:36.051Z,14.90
2019-05-26T23:23:05.510Z,14.90
2019-05-26T23:25:35.044Z,15.00
2019-05-26T23:28:04.563Z,14.90
2019-05-26T23:30:34.199Z,14.90
2019-05-26T23:33:04.694Z,14.90
2019-05-26T23:35:34.120Z,14.90
2019-05-26T23:38:03.627Z,14.90
2019-05-26T23:40:33.232Z,14.90
2019-05-26T23:43:02.926Z,14.80
2019-05-26T23:45:32.615Z,14.60
2019-05-26T23:48:02.122Z,14.70
2019-05-26T23:50:31.719Z,14.70
2019-05-26T23:53:01.266Z,14.70
2019-05-26T23:55:30.809Z,14.70
2019-05-26T23:58:00.352Z,14.70
